Time;durP1;ratioP1;P1;durP2;ratioP2;P2;SDS_P1;SDS_P2;PMS_P1;PMS_P2;Temp;Humidity;BMP_temperature;BMP_pressure;BME280_temperature;BME280_humidity;BME280_pressure;Samples;Min_cycle;Max_cycle;Signal;HPM_P1;HPM_P2
2024/01/17 00:00:37;;;;;;;;;;;;;;;0.17;65.26;99127.69;4464722;32;33014;-86
2024/01/17 00:03:11;;;;;;;;;;;;;;;0.63;64.26;99122.59;4463989;32;34560;-86
2024/01/17 00:05:40;;;;;;;;;;;;;;;0.52;64.60;99119.81;4464149;32;34282;-87
2024/01/17 00:08:15;;;;;;;;;;;;;;;0.56;63.85;99106.28;4468495;32;34148;-86
2024/01/17 00:10:50;;;;;;;;;;;;;;;0.70;63.46;99111.66;4453333;32;32798;-85
2024/01/17 00:13:19;;;;;;;;;;;;;;;0.63;64.14;99108.13;4448330;32;34004;-87
2024/01/17 00:15:48;;;;;;;;;;;;;;;0.81;63.29;99111.81;4448282;32;33754;-84
2024/01/17 00:18:18;;;;;;;;;;;;;;;0.71;63.43;99102.28;4453044;32;34067;-85
2024/01/17 00:20:48;;;;;;;;;;;;;;;0.81;62.85;99110.13;4440583;32;33238;-87
2024/01/17 00:23:19;;;;;;;;;;;;;;;0.78;62.87;99117.72;4433119;32;34263;-86
2024/01/17 00:25:54;;;;;;;;;;;;;;;0.91;62.33;99115.38;4432720;32;34875;-84
2024/01/17 00:28:23;;;;;;;;;;;;;;;0.82;62.44;99113.53;4433888;32;34010;-85
2024/01/17 00:30:52;;;;;;;;;;;;;;;0.71;62.61;99110.81;4437788;32;32410;-83
2024/01/17 00:33:21;;;;;;;;;;;;;;;0.78;62.21;99107.53;4434866;32;33198;-84
2024/01/17 00:35:53;;;;;;;;;;;;;;;0.78;62.07;99110.06;4432459;32;34038;-83
2024/01/17 00:38:24;;;;;;;;;;;;;;;0.63;62.14;99107.28;4432499;32;33647;-83
2024/01/17 00:41:00;;;;;;;;;;;;;;;0.56;62.71;99106.28;4437328;32;33354;-84
2024/01/17 00:43:30;;;;;;;;;;;;;;;0.63;62.25;99108.13;4448838;32;34749;-83
2024/01/17 00:46:04;;;;;;;;;;;;;;;0.61;62.29;99104.69;4432695;32;34596;-83
2024/01/17 00:48:33;;;;;;;;;;;;;;;0.61;62.00;99093.63;4432254;32;34314;-82
2024/01/17 00:51:08;;;;;;;;;;;;;;;0.50;62.26;99095.13;4433240;32;33373;-83
2024/01/17 00:53:38;;;;;;;;;;;;;;;0.33;62.80;99089.72;4437301;32;33576;-83
2024/01/17 00:56:07;;;;;;;;;;;;;;;0.44;62.43;99095.03;4432171;32;34224;-84
2024/01/17 00:58:46;;;;;;;;;;;;;;;0.45;62.67;99089.94;4432427;32;33842;-82
2024/01/17 01:01:15;;;;;;;;;;;;;;;0.76;61.24;99096.41;4432723;32;32385;-84
2024/01/17 01:03:43;;;;;;;;;;;;;;;0.37;62.74;99086.41;4432056;32;34207;-81
2024/01/17 01:06:12;;;;;;;;;;;;;;;0.58;61.67;99088.44;4437437;32;34583;-85
2024/01/17 01:08:47;;;;;;;;;;;;;;;0.40;62.32;99081.34;4431802;32;34389;-84
2024/01/17 01:11:15;;;;;;;;;;;;;;;0.37;62.07;99089.78;4436934;32;33714;-81
2024/01/17 01:13:52;;;;;;;;;;;;;;;0.44;61.17;99083.12;4432270;32;33598;-82
2024/01/17 01:16:21;;;;;;;;;;;;;;;0.37;61.48;99089.78;4432659;32;33667;-84
2024/01/17 01:18:53;;;;;;;;;;;;;;;0.30;61.68;99079.47;4437531;32;34828;-85
2024/01/17 01:21:22;;;;;;;;;;;;;;;0.19;61.79;99085.22;4435568;32;32973;-85
2024/01/17 01:23:51;;;;;;;;;;;;;;;-0.21;63.09;99086.16;4432078;32;34698;-85
2024/01/17 01:26:20;;;;;;;;;;;;;;;0.20;62.14;99083.53;4431712;32;34200;-82
2024/01/17 01:28:48;;;;;;;;;;;;;;;0.20;61.89;99084.38;4437417;32;33631;-86
2024/01/17 01:31:20;;;;;;;;;;;;;;;0.26;61.52;99081.06;4433204;32;33970;-86
2024/01/17 01:33:49;;;;;;;;;;;;;;;0.12;61.80;99074.84;4437476;32;33953;-83
2024/01/17 01:36:20;;;;;;;;;;;;;;;0.11;61.79;99070.59;4432896;32;33916;-83
2024/01/17 01:38:48;;;;;;;;;;;;;;;-0.20;63.30;99067.47;4438949;32;34407;-86
2024/01/17 01:41:18;;;;;;;;;;;;;;;-0.48;64.57;99060.97;4437262;32;33237;-82
2024/01/17 01:43:47;;;;;;;;;;;;;;;-0.41;64.88;99061.91;4441160;32;34065;-83
2024/01/17 01:46:25;;;;;;;;;;;;;;;-0.01;63.70;99061.03;4439164;32;33729;-85
2024/01/17 01:48:54;;;;;;;;;;;;;;;0.24;62.71;99052.12;4431669;32;33868;-81
2024/01/17 01:51:26;;;;;;;;;;;;;;;0.50;61.13;99049.19;4438995;32;33296;-82
2024/01/17 01:54:01;;;;;;;;;;;;;;;0.27;61.76;99039.44;4431775;32;33877;-81
2024/01/17 01:56:32;;;;;;;;;;;;;;;-0.39;64.07;99035.63;4431602;32;34998;-86
2024/01/17 01:59:02;;;;;;;;;;;;;;;0.00;62.45;99021.97;4433844;32;35371;-83
2024/01/17 02:01:32;;;;;;;;;;;;;;;-0.54;64.12;99026.00;4433757;32;33047;-83
2024/01/17 02:04:01;;;;;;;;;;;;;;;-0.99;66.05;99020.78;4437140;32;33597;-82
2024/01/17 02:06:30;;;;;;;;;;;;;;;-0.22;64.06;99016.47;4438010;32;34229;-83
2024/01/17 02:09:06;;;;;;;;;;;;;;;-0.37;64.20;99016.16;4432351;32;33822;-82
2024/01/17 02:11:34;;;;;;;;;;;;;;;-0.93;66.18;99014.16;4435426;32;33958;-81
2024/01/17 02:14:07;;;;;;;;;;;;;;;-0.70;65.51;99008.69;4444549;32;34347;-83
2024/01/17 02:16:38;;;;;;;;;;;;;;;-0.77;65.71;99007.72;4438426;32;34211;-83
2024/01/17 02:19:16;;;;;;;;;;;;;;;-0.17;63.99;99014.00;4432588;32;33973;-82
2024/01/17 02:21:49;;;;;;;;;;;;;;;-0.30;63.76;99006.94;4422090;32;34044;-82
2024/01/17 02:24:20;;;;;;;;;;;;;;;-0.12;63.16;99007.28;4415907;32;34470;-81
2024/01/17 02:26:50;;;;;;;;;;;;;;;-0.32;63.37;98998.41;4421871;32;33842;-81
2024/01/17 02:29:18;;;;;;;;;;;;;;;-0.31;63.58;99002.69;4421951;32;34015;-84
2024/01/17 02:31:53;;;;;;;;;;;;;;;0.07;62.10;98993.16;4420905;32;32955;-82
2024/01/17 02:34:22;;;;;;;;;;;;;;;0.02;61.78;98991.38;4418864;32;33389;-84
2024/01/17 02:36:51;;;;;;;;;;;;;;;-0.05;61.86;98983.62;4418796;32;34318;-81
2024/01/17 02:39:23;;;;;;;;;;;;;;;-0.04;61.91;98992.12;4424716;32;33365;-82
2024/01/17 02:41:53;;;;;;;;;;;;;;;0.02;61.26;98989.69;4416939;32;33859;-80
2024/01/17 02:44:22;;;;;;;;;;;;;;;0.01;61.11;98993.06;4423053;32;34525;-85
2024/01/17 02:46:51;;;;;;;;;;;;;;;-0.19;61.45;98995.28;4431304;32;34053;-81
2024/01/17 02:49:23;;;;;;;;;;;;;;;-0.16;61.03;98991.91;4423369;32;33726;-82
2024/01/17 02:51:58;;;;;;;;;;;;;;;-0.20;61.30;98992.69;4419429;32;33895;-80
2024/01/17 02:54:28;;;;;;;;;;;;;;;-0.22;61.64;98995.19;4415835;32;34819;-82
2024/01/17 02:56:58;;;;;;;;;;;;;;;-0.70;62.86;98990.84;4415723;32;34928;-84
2024/01/17 02:59:27;;;;;;;;;;;;;;;-0.68;63.18;98992.63;4427528;32;34824;-83
2024/01/17 03:01:58;;;;;;;;;;;;;;;-0.14;61.40;98993.66;4436219;32;33336;-82
2024/01/17 03:04:28;;;;;;;;;;;;;;;-0.45;62.70;98993.06;4430621;32;33271;-81
2024/01/17 03:06:58;;;;;;;;;;;;;;;-0.26;62.57;98994.28;4430805;32;34000;-80
2024/01/17 03:09:32;;;;;;;;;;;;;;;-0.14;61.97;98996.22;4431324;32;34016;-83
2024/01/17 03:12:13;;;;;;;;;;;;;;;-0.12;62.09;98994.56;4431510;32;33275;-82
2024/01/17 03:14:43;;;;;;;;;;;;;;;-0.77;63.74;98996.69;4435820;32;33759;-83
2024/01/17 03:17:12;;;;;;;;;;;;;;;-0.66;64.03;98988.41;4430839;32;34442;-81
2024/01/17 03:19:44;;;;;;;;;;;;;;;-0.36;62.70;98991.53;4431574;32;33476;-80
2024/01/17 03:22:13;;;;;;;;;;;;;;;-0.11;62.04;98987.75;4446016;32;32780;-81
2024/01/17 03:24:47;;;;;;;;;;;;;;;-0.20;62.17;98977.38;4451380;32;33619;-81
2024/01/17 03:27:16;;;;;;;;;;;;;;;-0.45;63.10;98969.28;4447852;32;34001;-81
2024/01/17 03:29:50;;;;;;;;;;;;;;;-0.55;62.77;98958.06;4449287;32;33807;-81
2024/01/17 03:32:19;;;;;;;;;;;;;;;-0.44;62.64;98951.47;4447753;32;33435;-84
2024/01/17 03:34:51;;;;;;;;;;;;;;;-0.43;62.57;98958.28;4445418;32;34335;-81
2024/01/17 03:37:24;;;;;;;;;;;;;;;-0.51;62.71;98959.84;4453043;32;34695;-79
2024/01/17 03:39:57;;;;;;;;;;;;;;;-0.28;61.76;98955.16;4449347;32;34338;-82
2024/01/17 03:42:26;;;;;;;;;;;;;;;-0.31;61.63;98946.63;4458204;32;32306;-80
2024/01/17 03:45:03;;;;;;;;;;;;;;;-0.47;62.25;98948.84;4450585;32;33589;-80
2024/01/17 03:47:34;;;;;;;;;;;;;;;-0.69;63.07;98931.47;4448448;32;34927;-82
2024/01/17 03:50:03;;;;;;;;;;;;;;;-1.25;65.26;98926.91;4453368;32;33341;-81
2024/01/17 03:52:33;;;;;;;;;;;;;;;-1.27;65.57;98918.37;4451062;32;32848;-80
2024/01/17 03:55:05;;;;;;;;;;;;;;;-0.88;64.34;98920.03;4447790;32;33165;-81
2024/01/17 03:57:35;;;;;;;;;;;;;;;-0.48;62.56;98931.88;4448185;32;34557;-81
2024/01/17 04:00:07;;;;;;;;;;;;;;;-0.67;62.71;98922.16;4453233;32;34215;-80
2024/01/17 04:02:36;;;;;;;;;;;;;;;-0.46;61.93;98934.41;4449660;32;33504;-81
2024/01/17 04:05:07;;;;;;;;;;;;;;;-0.51;62.17;98934.37;4448061;32;34015;-82
2024/01/17 04:07:40;;;;;;;;;;;;;;;-0.42;61.79;98918.37;4447594;32;34262;-80
2024/01/17 04:10:11;;;;;;;;;;;;;;;-0.36;61.43;98922.72;4448818;32;34913;-80
2024/01/17 04:12:40;;;;;;;;;;;;;;;-0.74;62.67;98926.28;4453378;32;32614;-82
2024/01/17 04:15:09;;;;;;;;;;;;;;;-0.49;61.97;98916.53;4447756;32;34152;-81
2024/01/17 04:17:44;;;;;;;;;;;;;;;-0.72;63.15;98916.13;4447357;32;33863;-82
2024/01/17 04:20:14;;;;;;;;;;;;;;;-0.58;62.34;98906.19;4442472;32;33931;-83
2024/01/17 04:22:46;;;;;;;;;;;;;;;-0.76;63.00;98904.16;4437877;32;33445;-80
2024/01/17 04:25:17;;;;;;;;;;;;;;;-0.63;62.53;98895.91;4437903;32;34330;-81
2024/01/17 04:27:47;;;;;;;;;;;;;;;-0.76;63.06;98886.31;4432607;32;33882;-81
2024/01/17 04:30:16;;;;;;;;;;;;;;;-1.33;65.57;98873.31;4434168;32;32704;-80
2024/01/17 04:32:50;;;;;;;;;;;;;;;-1.61;67.00;98863.38;4433173;32;32977;-83
2024/01/17 04:35:20;;;;;;;;;;;;;;;-1.32;66.71;98866.53;4437578;32;34686;-80
2024/01/17 04:37:53;;;;;;;;;;;;;;;-1.25;67.36;98862.44;4431779;32;33751;-81
2024/01/17 04:40:23;;;;;;;;;;;;;;;-1.66;69.57;98862.41;4432977;32;33646;-82
2024/01/17 04:42:52;;;;;;;;;;;;;;;-1.48;69.18;98864.50;4436466;32;33138;-80
2024/01/17 04:45:21;;;;;;;;;;;;;;;-1.41;68.34;98864.66;4442258;32;34526;-79
2024/01/17 04:47:50;;;;;;;;;;;;;;;-1.10;67.56;98868.69;4451688;32;34493;-80
2024/01/17 04:50:21;;;;;;;;;;;;;;;-1.33;68.96;98867.34;4445242;32;33660;-83
2024/01/17 04:52:54;;;;;;;;;;;;;;;-0.87;66.92;98865.72;4449158;32;33486;-82
2024/01/17 04:55:24;;;;;;;;;;;;;;;-0.71;65.66;98867.75;4447775;32;34142;-83
2024/01/17 04:57:56;;;;;;;;;;;;;;;-0.98;66.77;98868.06;4438173;32;33982;-80
2024/01/17 05:00:25;;;;;;;;;;;;;;;-1.45;68.83;98878.16;4432408;32;33226;-83
2024/01/17 05:02:55;;;;;;;;;;;;;;;-1.39;67.97;98869.78;4432248;32;34151;-80
2024/01/17 05:05:24;;;;;;;;;;;;;;;-1.53;69.19;98869.47;4432086;32;33485;-80
2024/01/17 05:08:02;;;;;;;;;;;;;;;-1.39;68.87;98863.00;4432703;32;33669;-80
2024/01/17 05:10:32;;;;;;;;;;;;;;;-1.31;68.18;98871.66;4437677;32;34195;-82
2024/01/17 05:13:07;;;;;;;;;;;;;;;-1.11;68.26;98854.25;4431906;32;33292;-83
2024/01/17 05:15:44;;;;;;;;;;;;;;;-1.01;68.04;98854.44;4431876;32;34749;-79
2024/01/17 05:18:13;;;;;;;;;;;;;;;-1.11;67.99;98858.50;4431733;32;33889;-81
2024/01/17 05:20:43;;;;;;;;;;;;;;;-1.34;68.48;98861.41;4437384;32;34903;-81
2024/01/17 05:23:11;;;;;;;;;;;;;;;-1.02;68.01;98851.03;4437530;32;33335;-79
2024/01/17 05:25:44;;;;;;;;;;;;;;;-1.08;68.31;98843.28;4431830;32;34360;-81
2024/01/17 05:28:13;;;;;;;;;;;;;;;-0.89;67.60;98853.00;4430492;32;33459;-82
2024/01/17 05:30:44;;;;;;;;;;;;;;;-1.22;68.71;98858.25;4431847;32;34200;-82
2024/01/17 05:33:13;;;;;;;;;;;;;;;-1.31;69.31;98855.53;4437254;32;33070;-80
2024/01/17 05:35:43;;;;;;;;;;;;;;;-1.11;68.14;98855.97;4431625;32;34709;-80
2024/01/17 05:38:15;;;;;;;;;;;;;;;-1.34;69.29;98858.00;4431667;32;33983;-83
2024/01/17 05:40:46;;;;;;;;;;;;;;;-0.93;67.37;98866.47;4432681;32;34450;-81
2024/01/17 05:43:15;;;;;;;;;;;;;;;-0.85;67.03;98858.97;4431660;32;33383;-81
2024/01/17 05:45:51;;;;;;;;;;;;;;;-1.20;68.13;98840.50;4443679;32;33483;-81
2024/01/17 05:48:20;;;;;;;;;;;;;;;-1.04;67.65;98839.94;4438916;32;33869;-83
2024/01/17 05:50:52;;;;;;;;;;;;;;;-0.87;67.51;98837.72;4429972;32;33166;-81
2024/01/17 05:53:21;;;;;;;;;;;;;;;-1.07;68.43;98842.44;4436519;32;33367;-81
2024/01/17 05:55:54;;;;;;;;;;;;;;;-1.37;70.31;98852.88;4444593;32;33438;-82
2024/01/17 05:58:24;;;;;;;;;;;;;;;-0.91;68.26;98853.78;4435168;32;34497;-81
2024/01/17 06:00:54;;;;;;;;;;;;;;;-0.60;67.69;98845.03;4442892;32;33748;-82
2024/01/17 06:03:23;;;;;;;;;;;;;;;-0.67;68.32;98833.00;4437183;32;33154;-80
2024/01/17 06:05:56;;;;;;;;;;;;;;;-0.72;68.71;98837.16;4437702;32;34894;-81
2024/01/17 06:08:25;;;;;;;;;;;;;;;-0.89;69.26;98829.22;4442556;32;34284;-81
2024/01/17 06:11:01;;;;;;;;;;;;;;;-0.89;69.65;98826.69;4439701;32;34185;-82
2024/01/17 06:13:30;;;;;;;;;;;;;;;-0.42;67.68;98829.19;4438378;32;32585;-81
2024/01/17 06:16:05;;;;;;;;;;;;;;;-0.29;67.15;98835.34;4436343;32;34750;-83
2024/01/17 06:18:37;;;;;;;;;;;;;;;-0.45;67.93;98827.44;4443783;32;34693;-81
2024/01/17 06:21:06;;;;;;;;;;;;;;;-0.90;69.01;98815.59;4441146;32;34017;-80
2024/01/17 06:23:35;;;;;;;;;;;;;;;-0.74;69.21;98828.63;4444864;32;33417;-79
2024/01/17 06:26:06;;;;;;;;;;;;;;;-1.27;70.87;98819.16;4446115;32;34886;-81
2024/01/17 06:28:35;;;;;;;;;;;;;;;-1.79;72.64;98830.75;4447127;32;33951;-81
2024/01/17 06:31:12;;;;;;;;;;;;;;;-1.87;73.71;98833.13;4459751;32;33863;-82
2024/01/17 06:33:41;;;;;;;;;;;;;;;-1.30;72.54;98836.91;4454774;32;33006;-80
2024/01/17 06:36:14;;;;;;;;;;;;;;;-1.63;72.87;98820.09;4445299;32;33763;-81
2024/01/17 06:38:43;;;;;;;;;;;;;;;-1.10;71.71;98819.47;4456290;32;33701;-84
2024/01/17 06:41:14;;;;;;;;;;;;;;;-0.86;70.66;98822.47;4454113;32;34887;-81
2024/01/17 06:43:42;;;;;;;;;;;;;;;-0.54;69.38;98827.28;4453454;32;32868;-82
2024/01/17 06:46:14;;;;;;;;;;;;;;;-0.29;68.46;98835.34;4452613;32;33367;-83
2024/01/17 06:48:42;;;;;;;;;;;;;;;-0.67;69.08;98854.25;4453367;32;34854;-83
2024/01/17 06:51:16;;;;;;;;;;;;;;;-0.49;69.06;98848.59;4451070;32;33168;-81
2024/01/17 06:53:51;;;;;;;;;;;;;;;-0.57;68.99;98834.87;4442018;32;31939;-82
2024/01/17 06:56:23;;;;;;;;;;;;;;;-0.12;67.82;98827.97;4450169;32;35163;-83
2024/01/17 06:58:52;;;;;;;;;;;;;;;-0.71;69.56;98819.34;4444885;32;34215;-81
2024/01/17 07:01:21;;;;;;;;;;;;;;;-0.68;69.00;98816.00;4450853;32;34273;-82
2024/01/17 07:03:51;;;;;;;;;;;;;;;-0.26;68.08;98826.06;4447207;32;33352;-81
2024/01/17 07:06:20;;;;;;;;;;;;;;;-0.50;68.73;98815.47;4452569;32;33742;-83
2024/01/17 07:08:50;;;;;;;;;;;;;;;-1.04;69.96;98819.56;4448033;32;35019;-81
2024/01/17 07:11:19;;;;;;;;;;;;;;;-0.80;70.05;98821.72;4449253;32;33520;-81
2024/01/17 07:13:49;;;;;;;;;;;;;;;-0.74;69.85;98809.12;4448571;32;34065;-81
2024/01/17 07:16:25;;;;;;;;;;;;;;;-1.19;71.54;98809.12;4452134;32;33694;-83
2024/01/17 07:18:55;;;;;;;;;;;;;;;-0.99;70.61;98795.09;4450704;32;35830;-81
2024/01/17 07:21:26;;;;;;;;;;;;;;;-0.25;68.62;98791.22;4438737;32;34780;-83
2024/01/17 07:24:00;;;;;;;;;;;;;;;-0.41;68.81;98781.63;4438434;32;32812;-81
2024/01/17 07:26:31;;;;;;;;;;;;;;;-0.33;68.22;98783.47;4436327;32;33673;-84
2024/01/17 07:29:03;;;;;;;;;;;;;;;-0.61;69.26;98789.81;4440050;32;34009;-85
2024/01/17 07:31:34;;;;;;;;;;;;;;;-0.51;69.65;98799.34;4446511;32;34684;-83
2024/01/17 07:34:05;;;;;;;;;;;;;;;-0.82;70.29;98789.44;4439775;32;33495;-83
2024/01/17 07:36:35;;;;;;;;;;;;;;;-0.36;68.25;98775.78;4439656;32;33512;-80
2024/01/17 07:39:05;;;;;;;;;;;;;;;-0.82;69.66;98785.22;4437635;32;34924;-81
2024/01/17 07:41:34;;;;;;;;;;;;;;;-0.69;69.91;98784.59;4445500;32;31955;-81
2024/01/17 07:44:06;;;;;;;;;;;;;;;-0.95;70.81;98779.03;4443076;32;33397;-83
2024/01/17 07:46:35;;;;;;;;;;;;;;;-1.10;71.84;98773.66;4438869;32;34864;-82
2024/01/17 07:49:05;;;;;;;;;;;;;;;-1.60;73.23;98774.37;4445627;32;34444;-84
2024/01/17 07:51:34;;;;;;;;;;;;;;;-0.58;70.34;98773.72;4448100;32;34321;-83
2024/01/17 07:54:04;;;;;;;;;;;;;;;-0.09;67.97;98771.94;4445661;32;33015;-80
2024/01/17 07:56:34;;;;;;;;;;;;;;;-0.67;69.95;98765.09;4442652;32;33393;-83
2024/01/17 07:59:04;;;;;;;;;;;;;;;-0.04;68.11;98767.75;4443534;32;33762;-83
2024/01/17 08:01:35;;;;;;;;;;;;;;;0.22;66.82;98768.13;4439118;32;32528;-81
2024/01/17 08:04:10;;;;;;;;;;;;;;;0.26;66.80;98769.88;4450999;32;33022;-83
2024/01/17 08:06:40;;;;;;;;;;;;;;;0.34;66.07;98772.50;4448399;32;34253;-81
2024/01/17 08:09:20;;;;;;;;;;;;;;;0.35;66.18;98771.69;4435809;32;34738;-82
2024/01/17 08:11:52;;;;;;;;;;;;;;;-0.32;68.04;98772.44;4432509;32;33562;-81
2024/01/17 08:14:21;;;;;;;;;;;;;;;0.11;66.59;98770.53;4433192;32;33360;-82
2024/01/17 08:16:52;;;;;;;;;;;;;;;0.19;66.36;98770.62;4437764;32;34169;-81
2024/01/17 08:19:22;;;;;;;;;;;;;;;0.38;66.44;98775.13;4432487;32;34675;-81
2024/01/17 08:21:57;;;;;;;;;;;;;;;-0.13;67.77;98770.19;4432681;32;33545;-81
2024/01/17 08:24:26;;;;;;;;;;;;;;;0.40;66.58;98764.94;4432545;32;33236;-83
2024/01/17 08:26:55;;;;;;;;;;;;;;;0.39;66.65;98771.75;4437471;32;34120;-81
2024/01/17 08:29:24;;;;;;;;;;;;;;;-0.44;68.96;98767.16;4432675;32;33673;-83
2024/01/17 08:32:02;;;;;;;;;;;;;;;-0.37;69.19;98768.97;4468490;32;32650;-81
2024/01/17 08:34:30;;;;;;;;;;;;;;;-0.75;70.68;98771.75;4456156;32;33082;-81
2024/01/17 08:37:00;;;;;;;;;;;;;;;-0.32;69.23;98764.78;4463765;32;34365;-84
2024/01/17 08:39:29;;;;;;;;;;;;;;;0.05;67.61;98762.81;4468524;32;34891;-81
2024/01/17 08:42:00;;;;;;;;;;;;;;;0.48;66.77;98762.47;4465675;32;34181;-82
2024/01/17 08:44:30;;;;;;;;;;;;;;;0.34;66.67;98757.19;4461007;32;32793;-82
2024/01/17 08:47:03;;;;;;;;;;;;;;;0.03;68.40;98756.81;4459281;32;34458;-82
2024/01/17 08:49:31;;;;;;;;;;;;;;;-0.43;70.33;98749.34;4460796;32;33954;-85
2024/01/17 08:52:03;;;;;;;;;;;;;;;0.11;68.39;98754.38;4464663;32;34649;-80
2024/01/17 08:54:32;;;;;;;;;;;;;;;-0.52;71.35;98746.66;4455809;32;33696;-85
2024/01/17 08:57:01;;;;;;;;;;;;;;;-0.07;70.02;98738.00;4453711;32;33149;-82
2024/01/17 08:59:34;;;;;;;;;;;;;;;0.02;68.94;98747.44;4450165;32;33953;-81
2024/01/17 09:02:08;;;;;;;;;;;;;;;-0.08;70.14;98750.69;4459090;32;34702;-82
2024/01/17 09:04:39;;;;;;;;;;;;;;;-0.07;70.13;98743.09;4461136;32;34170;-82
2024/01/17 09:07:09;;;;;;;;;;;;;;;-0.17;70.30;98737.81;4463578;32;33977;-80
2024/01/17 09:09:37;;;;;;;;;;;;;;;-0.08;70.30;98727.75;4464508;32;34570;-83
2024/01/17 09:12:12;;;;;;;;;;;;;;;0.25;69.00;98734.16;4467114;32;34061;-81
2024/01/17 09:14:43;;;;;;;;;;;;;;;-0.45;72.48;98722.13;4463130;32;34077;-81
2024/01/17 09:17:13;;;;;;;;;;;;;;;-0.54;73.27;98710.09;4462349;32;32988;-82
2024/01/17 09:19:43;;;;;;;;;;;;;;;0.07;72.02;98716.91;4444162;32;32598;-82
2024/01/17 09:22:12;;;;;;;;;;;;;;;0.35;70.92;98713.87;4436463;32;33676;-82
2024/01/17 09:24:41;;;;;;;;;;;;;;;-0.17;72.88;98702.12;4442028;32;33933;-84
2024/01/17 09:27:13;;;;;;;;;;;;;;;0.18;72.09;98703.44;4448024;32;33634;-86
2024/01/17 09:29:45;;;;;;;;;;;;;;;-0.04;73.47;98691.28;4447910;32;34751;-83
2024/01/17 09:32:18;;;;;;;;;;;;;;;0.10;73.05;98678.72;4455716;32;33835;-84
2024/01/17 09:34:50;;;;;;;;;;;;;;;0.37;71.67;98679.03;4448068;32;33405;-82
2024/01/17 09:37:25;;;;;;;;;;;;;;;0.38;71.29;98680.72;4456254;32;34253;-82
2024/01/17 09:39:55;;;;;;;;;;;;;;;0.08;72.79;98683.78;4453316;32;32423;-83
2024/01/17 09:42:26;;;;;;;;;;;;;;;-0.47;75.64;98680.47;4457874;32;33743;-82
2024/01/17 09:45:01;;;;;;;;;;;;;;;-1.10;78.19;98664.22;4456205;32;33750;-85
2024/01/17 09:47:33;;;;;;;;;;;;;;;-0.28;75.50;98659.53;4446400;32;33871;-86
2024/01/17 09:50:10;;;;;;;;;;;;;;;-0.05;74.69;98652.19;4453723;32;35303;-81
2024/01/17 09:52:45;;;;;;;;;;;;;;;-0.71;78.09;98637.69;4450823;32;35450;-83
2024/01/17 09:55:14;;;;;;;;;;;;;;;-1.21;80.56;98625.00;4451476;32;33170;-85
2024/01/17 09:57:50;;;;;;;;;;;;;;;-1.38;80.84;98612.84;4455141;32;34366;-84
2024/01/17 10:00:18;;;;;;;;;;;;;;;-1.00;80.49;98604.13;4467778;32;34830;-81
2024/01/17 10:02:50;;;;;;;;;;;;;;;-0.65;78.85;98602.12;4465465;32;34448;-83
2024/01/17 10:05:18;;;;;;;;;;;;;;;-0.54;79.16;98600.56;4463450;32;33914;-82
2024/01/17 10:07:48;;;;;;;;;;;;;;;-0.41;78.09;98596.50;4463160;32;33433;-84
2024/01/17 10:10:19;;;;;;;;;;;;;;;0.06;76.84;98595.34;4467577;32;34107;-86
2024/01/17 10:12:49;;;;;;;;;;;;;;;0.10;76.89;98590.31;4459050;32;34432;-83
2024/01/17 10:15:17;;;;;;;;;;;;;;;0.31;76.76;98579.44;4447408;32;32595;-82
2024/01/17 10:17:53;;;;;;;;;;;;;;;0.10;77.11;98582.66;4458025;32;33683;-83
2024/01/17 10:20:24;;;;;;;;;;;;;;;0.76;74.65;98578.16;4449681;32;34390;-86
2024/01/17 10:22:53;;;;;;;;;;;;;;;0.50;75.66;98557.53;4436309;32;33173;-84
2024/01/17 10:25:25;;;;;;;;;;;;;;;0.80;75.35;98545.87;4436741;32;33403;-84
2024/01/17 10:27:54;;;;;;;;;;;;;;;-0.13;78.01;98556.03;4441001;32;34643;-83
2024/01/17 10:30:22;;;;;;;;;;;;;;;0.24;78.44;98541.12;4448052;32;34838;-84
2024/01/17 10:32:58;;;;;;;;;;;;;;;0.53;76.74;98528.63;4447196;32;34136;-82
2024/01/17 10:35:27;;;;;;;;;;;;;;;0.45;76.23;98533.66;4451109;32;32922;-83
2024/01/17 10:37:58;;;;;;;;;;;;;;;0.57;76.78;98546.53;4446923;32;34420;-84
2024/01/17 10:40:27;;;;;;;;;;;;;;;0.44;76.88;98533.69;4433586;32;33265;-83
2024/01/17 10:43:09;;;;;;;;;;;;;;;0.39;77.87;98526.81;4431668;32;33369;-83
2024/01/17 10:45:42;;;;;;;;;;;;;;;0.77;76.34;98513.50;4432116;32;33023;-85
2024/01/17 10:48:14;;;;;;;;;;;;;;;0.86;75.90;98512.72;4436773;32;33576;-87
2024/01/17 10:50:43;;;;;;;;;;;;;;;0.18;77.75;98506.22;4432502;32;35145;-86
2024/01/17 10:53:15;;;;;;;;;;;;;;;0.14;77.16;98496.81;4436005;32;34718;-88
2024/01/17 10:55:46;;;;;;;;;;;;;;;-0.24;79.50;98487.13;4437573;32;32485;-84
2024/01/17 10:58:15;;;;;;;;;;;;;;;0.70;76.52;98480.25;4436113;32;33458;-84
2024/01/17 11:00:48;;;;;;;;;;;;;;;0.33;77.57;98474.88;4442160;32;33479;-87
2024/01/17 11:03:19;;;;;;;;;;;;;;;0.55;76.52;98478.47;4439906;32;33711;-88
2024/01/17 11:05:50;;;;;;;;;;;;;;;1.29;73.92;98456.75;4440254;32;32842;-84
2024/01/17 11:08:19;;;;;;;;;;;;;;;1.43;73.09;98460.22;4442298;32;33406;-86
2024/01/17 11:10:49;;;;;;;;;;;;;;;0.86;75.36;98451.44;4439545;32;34094;-88
2024/01/17 11:13:18;;;;;;;;;;;;;;;0.18;77.83;98445.00;4447715;32;35335;-84
2024/01/17 11:15:48;;;;;;;;;;;;;;;0.42;77.30;98442.66;4444375;32;33757;-85
2024/01/17 11:18:17;;;;;;;;;;;;;;;0.36;78.37;98418.78;4446293;32;34168;-84
2024/01/17 11:20:52;;;;;;;;;;;;;;;-0.15;80.98;98422.63;4449886;32;34682;-85
2024/01/17 11:23:24;;;;;;;;;;;;;;;0.52;78.19;98412.09;4444659;32;33587;-84
2024/01/17 11:26:05;;;;;;;;;;;;;;;0.41;78.50;98412.88;4431108;32;33068;-84
2024/01/17 11:28:36;;;;;;;;;;;;;;;0.33;78.23;98416.22;4431124;32;34532;-85
2024/01/17 11:31:11;;;;;;;;;;;;;;;0.63;77.21;98416.44;4431773;32;33809;-85
2024/01/17 11:33:44;;;;;;;;;;;;;;;0.99;76.03;98388.50;4431276;32;32814;-87
2024/01/17 11:36:28;;;;;;;;;;;;;;;1.36;75.21;98388.66;4435598;32;33294;-86
2024/01/17 11:39:01;;;;;;;;;;;;;;;1.15;74.92;98387.72;4430478;32;33743;-86
2024/01/17 11:41:33;;;;;;;;;;;;;;;1.89;73.27;98388.72;4434568;32;35178;-86
2024/01/17 11:44:02;;;;;;;;;;;;;;;1.53;74.38;98386.13;4430638;32;34301;-85
2024/01/17 11:46:31;;;;;;;;;;;;;;;1.53;73.75;98383.59;4434107;32;33588;-84
2024/01/17 11:49:07;;;;;;;;;;;;;;;1.57;73.12;98369.94;4437923;32;33761;-85
2024/01/17 11:51:38;;;;;;;;;;;;;;;1.93;71.55;98366.56;4450410;32;34046;-87
2024/01/17 11:54:12;;;;;;;;;;;;;;;1.77;72.30;98359.75;4440720;32;34410;-86
2024/01/17 11:56:41;;;;;;;;;;;;;;;1.26;74.35;98345.19;4443466;32;33324;-87
2024/01/17 11:59:13;;;;;;;;;;;;;;;1.62;72.99;98353.78;4446890;32;34651;-85
2024/01/17 12:01:43;;;;;;;;;;;;;;;1.10;75.32;98350.25;4442006;32;33696;-86
2024/01/17 12:04:15;;;;;;;;;;;;;;;1.01;75.06;98345.97;4437682;32;34740;-87
2024/01/17 12:06:46;;;;;;;;;;;;;;;1.01;76.11;98339.16;4436970;32;33409;-85
2024/01/17 12:09:18;;;;;;;;;;;;;;;0.81;75.80;98330.56;4435258;32;33852;-87
2024/01/17 12:11:53;;;;;;;;;;;;;;;0.98;76.11;98335.75;4438084;32;34994;-85
2024/01/17 12:14:22;;;;;;;;;;;;;;;1.55;74.40;98312.84;4432985;32;34414;-86
2024/01/17 12:16:52;;;;;;;;;;;;;;;1.24;75.67;98311.13;4437036;32;33419;-85
2024/01/17 12:19:20;;;;;;;;;;;;;;;0.73;75.67;98299.06;4443045;32;34902;-87
2024/01/17 12:21:53;;;;;;;;;;;;;;;0.12;78.91;98304.69;4447475;32;33374;-84
2024/01/17 12:24:26;;;;;;;;;;;;;;;-0.02;79.68;98302.09;4445781;32;34821;-85
2024/01/17 12:27:14;;;;;;;;;;;;;;;0.07;79.29;98293.63;4439897;32;33981;-88
2024/01/17 12:29:47;;;;;;;;;;;;;;;0.12;78.67;98282.62;4435366;32;33742;-88
2024/01/17 12:32:17;;;;;;;;;;;;;;;0.39;79.06;98274.25;4451322;32;35015;-84
2024/01/17 12:34:47;;;;;;;;;;;;;;;0.15;78.91;98272.44;4459374;32;34363;-86
2024/01/17 12:37:22;;;;;;;;;;;;;;;0.03;79.67;98266.44;4456907;32;33473;-84
2024/01/17 12:39:54;;;;;;;;;;;;;;;-0.63;82.48;98271.87;4454689;32;34840;-85
2024/01/17 12:42:23;;;;;;;;;;;;;;;0.15;79.94;98262.25;4458910;32;34824;-84
2024/01/17 12:44:52;;;;;;;;;;;;;;;0.01;79.85;98257.91;4458575;32;33730;-85
2024/01/17 12:47:27;;;;;;;;;;;;;;;-0.20;81.56;98253.53;4459670;32;32584;-86
2024/01/17 12:49:56;;;;;;;;;;;;;;;0.41;78.86;98223.22;4455113;32;33855;-85
2024/01/17 12:52:27;;;;;;;;;;;;;;;0.75;77.75;98236.09;4459950;32;33914;-83
2024/01/17 12:54:58;;;;;;;;;;;;;;;0.46;78.01;98246.22;4446892;32;33861;-88
2024/01/17 12:57:28;;;;;;;;;;;;;;;0.10;80.39;98248.63;4457115;32;32658;-85
2024/01/17 13:00:00;;;;;;;;;;;;;;;0.12;81.43;98239.28;4462017;32;33453;-86
2024/01/17 13:02:33;;;;;;;;;;;;;;;-0.20;81.38;98238.22;4449847;32;34219;-87
2024/01/17 13:05:09;;;;;;;;;;;;;;;-0.33;82.39;98238.16;4450642;32;33559;-85
2024/01/17 13:07:40;;;;;;;;;;;;;;;0.11;80.31;98236.72;4453225;32;33442;-89
2024/01/17 13:10:18;;;;;;;;;;;;;;;0.08;80.91;98235.00;4456037;32;34559;-85